createdAt,value
2019-01-29T00:00:09.802Z,6.20
2019-01-29T00:02:51.907Z,4.25
2019-01-29T00:05:32.106Z,6.30
2019-01-29T00:08:12.393Z,7.50
2019-01-29T00:10:52.345Z,7.10
2019-01-29T00:13:32.628Z,7.95
2019-01-29T00:16:12.572Z,5.83
2019-01-29T00:18:52.512Z,4.53
2019-01-29T00:21:32.371Z,6.35
2019-01-29T00:24:12.808Z,11.33
2019-01-29T00:26:53.264Z,4.00
2019-01-29T00:29:32.898Z,6.25
2019-01-29T00:32:13.024Z,3.87
2019-01-29T00:34:53.135Z,6.15
2019-01-29T00:37:33.092Z,6.12
2019-01-29T00:40:13.392Z,6.45
2019-01-29T00:42:53.285Z,11.95
2019-01-29T00:45:33.305Z,6.72
2019-01-29T00:48:13.586Z,3.80
2019-01-29T00:50:53.417Z,5.30
2019-01-29T00:53:33.389Z,5.33
2019-01-29T00:56:13.768Z,5.87
2019-01-29T00:58:53.783Z,5.58
2019-01-29T01:01:33.396Z,5.53
2019-01-29T01:04:13.187Z,5.62
2019-01-29T01:06:53.362Z,4.28
2019-01-29T01:09:33.845Z,6.45
2019-01-29T01:12:13.686Z,3.45
2019-01-29T01:14:53.899Z,5.80
2019-01-29T01:17:33.854Z,4.67
2019-01-29T01:20:13.780Z,7.12
2019-01-29T01:22:53.492Z,6.92
2019-01-29T01:25:33.688Z,3.10
2019-01-29T01:28:14.020Z,8.58
2019-01-29T01:30:53.853Z,5.15
2019-01-29T01:33:34.012Z,5.67
2019-01-29T01:36:15.278Z,6.05
2019-01-29T01:38:54.987Z,7.70
2019-01-29T01:41:34.872Z,5.20
2019-01-29T01:44:14.948Z,5.12
2019-01-29T01:46:54.907Z,5.33
2019-01-29T01:49:35.390Z,3.77
2019-01-29T01:52:15.579Z,7.62
2019-01-29T01:54:58.657Z,4.25
2019-01-29T01:57:38.368Z,7.67
2019-01-29T02:00:18.408Z,5.65
2019-01-29T02:02:58.499Z,6.72
2019-01-29T02:05:38.262Z,4.58
2019-01-29T02:08:18.586Z,4.42
2019-01-29T02:10:58.509Z,7.92
2019-01-29T02:13:38.840Z,3.62
2019-01-29T02:16:18.696Z,3.50
2019-01-29T02:18:58.662Z,8.10
2019-01-29T02:21:38.775Z,8.50
2019-01-29T02:24:18.735Z,3.80
2019-01-29T02:26:58.905Z,4.00
2019-01-29T02:29:38.962Z,6.47
2019-01-29T02:32:19.114Z,8.70
2019-01-29T02:34:59.200Z,5.22
2019-01-29T02:37:39.417Z,3.92
2019-01-29T02:40:19.376Z,3.92
2019-01-29T02:42:59.000Z,4.70
2019-01-29T02:45:39.183Z,4.40
2019-01-29T02:48:19.464Z,6.47
2019-01-29T02:50:59.644Z,5.50
2019-01-29T02:53:39.596Z,8.63
2019-01-29T02:56:19.538Z,5.80
2019-01-29T02:58:59.611Z,7.33
2019-01-29T03:01:39.782Z,6.20
2019-01-29T03:04:19.564Z,6.45
2019-01-29T03:06:59.514Z,5.22
2019-01-29T03:09:39.756Z,9.68
2019-01-29T03:12:19.636Z,7.08
2019-01-29T03:14:59.878Z,8.28
2019-01-29T03:17:40.392Z,7.00
2019-01-29T03:20:20.483Z,10.50
2019-01-29T03:23:00.674Z,9.50
2019-01-29T03:25:40.904Z,6.28
2019-01-29T03:28:20.920Z,7.58
2019-01-29T03:31:01.871Z,9.03
2019-01-29T03:33:42.057Z,9.38
2019-01-29T03:36:21.923Z,11.40
2019-01-29T03:39:02.464Z,14.75
2019-01-29T03:41:44.481Z,7.12
2019-01-29T03:47:23.786Z,6.20
2019-01-29T03:50:04.121Z,5.05
2019-01-29T03:52:43.730Z,10.45
2019-01-29T03:55:23.816Z,5.50
2019-01-29T03:58:04.050Z,6.83
2019-01-29T04:00:43.913Z,6.22
2019-01-29T04:03:24.205Z,8.35
2019-01-29T04:06:04.098Z,8.15
2019-01-29T04:08:44.071Z,5.58
2019-01-29T04:11:24.191Z,11.63
2019-01-29T04:14:04.151Z,11.50
2019-01-29T04:16:44.620Z,5.78
2019-01-29T04:19:24.774Z,6.30
2019-01-29T04:22:05.178Z,6.22
2019-01-29T04:24:45.509Z,4.97
2019-01-29T04:27:25.576Z,8.93
2019-01-29T04:30:05.432Z,8.33
2019-01-29T04:32:45.709Z,6.22
2019-01-29T04:35:25.805Z,9.70
2019-01-29T04:38:06.204Z,10.78
2019-01-29T04:40:45.980Z,6.15
2019-01-29T04:43:26.212Z,5.20
2019-01-29T04:46:06.401Z,7.58
2019-01-29T04:48:46.160Z,7.40
2019-01-29T04:51:26.464Z,9.60
2019-01-29T04:54:06.503Z,7.12
2019-01-29T04:56:49.750Z,11.30
2019-01-29T04:59:29.635Z,7.90
2019-01-29T05:02:09.680Z,5.33
2019-01-29T05:04:49.602Z,12.95
2019-01-29T05:07:30.258Z,9.55
2019-01-29T05:10:10.090Z,8.90
2019-01-29T05:12:50.360Z,8.08
2019-01-29T05:15:30.415Z,6.67
2019-01-29T05:18:10.505Z,8.20
2019-01-29T05:20:50.839Z,6.80
2019-01-29T05:23:30.540Z,7.08
2019-01-29T05:26:10.425Z,8.90
2019-01-29T05:28:50.317Z,7.53
2019-01-29T05:31:30.600Z,9.78
2019-01-29T05:34:10.803Z,6.28
2019-01-29T05:36:50.854Z,7.60
2019-01-29T05:39:30.606Z,6.67
2019-01-29T05:42:10.729Z,6.10
2019-01-29T05:44:50.777Z,6.97
2019-01-29T05:47:30.872Z,6.42
2019-01-29T05:50:11.153Z,11.80
2019-01-29T05:52:51.048Z,8.73
2019-01-29T05:55:31.491Z,9.10
2019-01-29T05:58:11.352Z,7.78
2019-01-29T06:00:51.313Z,7.50
2019-01-29T06:03:31.259Z,6.53
2019-01-29T06:06:11.367Z,9.80
2019-01-29T06:08:51.492Z,7.53
2019-01-29T06:11:31.575Z,9.98
2019-01-29T06:14:11.474Z,16.85
2019-01-29T06:16:51.783Z,12.95
2019-01-29T06:19:31.948Z,15.50
2019-01-29T06:22:11.825Z,10.53
2019-01-29T06:24:52.098Z,6.95
2019-01-29T06:27:32.274Z,12.70
2019-01-29T06:30:12.634Z,9.63
2019-01-29T06:32:52.958Z,7.37
2019-01-29T06:35:33.181Z,9.55
2019-01-29T06:38:12.989Z,9.13
2019-01-29T06:40:53.552Z,10.93
2019-01-29T06:43:33.677Z,20.08
2019-01-29T06:46:13.608Z,8.70
2019-01-29T06:48:53.923Z,11.55
2019-01-29T06:51:34.975Z,10.28
2019-01-29T06:54:14.518Z,8.38
2019-01-29T06:56:54.915Z,8.85
2019-01-29T06:59:35.072Z,7.90
2019-01-29T07:02:14.799Z,10.70
2019-01-29T07:04:55.252Z,11.63
2019-01-29T07:07:35.024Z,8.78
2019-01-29T07:10:15.160Z,12.40
2019-01-29T07:12:54.882Z,14.20
2019-01-29T07:15:54.583Z,15.53
2019-01-29T07:18:38.248Z,14.75
2019-01-29T07:21:18.211Z,8.58
2019-01-29T07:23:58.224Z,9.35
2019-01-29T07:26:38.306Z,16.05
2019-01-29T07:29:18.367Z,17.02
2019-01-29T07:31:58.443Z,12.40
2019-01-29T07:34:39.004Z,12.45
2019-01-29T07:37:22.041Z,12.58
2019-01-29T07:40:00.749Z,10.43
2019-01-29T07:42:40.764Z,9.15
2019-01-29T07:45:20.872Z,26.90
2019-01-29T07:48:01.296Z,36.35
2019-01-29T07:50:41.160Z,17.27
2019-01-29T07:53:21.630Z,16.52
2019-01-29T07:56:01.334Z,8.98
2019-01-29T07:58:41.195Z,13.43
2019-01-29T08:01:21.299Z,15.50
2019-01-29T08:04:01.087Z,8.28
2019-01-29T08:06:41.308Z,6.80
2019-01-29T08:09:21.500Z,8.20
2019-01-29T08:12:01.532Z,9.58
2019-01-29T08:14:41.860Z,7.65
2019-01-29T08:17:21.711Z,11.30
2019-01-29T08:20:02.013Z,8.88
2019-01-29T08:22:41.730Z,14.83
2019-01-29T08:25:21.829Z,10.58
2019-01-29T08:28:01.886Z,5.75
2019-01-29T08:30:41.608Z,6.20
2019-01-29T08:33:22.088Z,5.47
2019-01-29T08:36:01.812Z,9.85
2019-01-29T08:38:41.923Z,8.98
2019-01-29T08:41:22.177Z,8.45
2019-01-29T08:44:02.122Z,9.63
2019-01-29T08:46:42.056Z,11.05
2019-01-29T08:49:22.225Z,15.38
2019-01-29T08:52:02.364Z,12.47
2019-01-29T08:54:42.253Z,6.10
2019-01-29T08:57:23.492Z,7.33
2019-01-29T09:00:03.793Z,5.15
2019-01-29T09:02:44.580Z,8.75
2019-01-29T09:05:24.231Z,7.15
2019-01-29T09:08:04.618Z,4.37
2019-01-29T09:10:44.212Z,5.45
2019-01-29T09:13:24.667Z,10.60
2019-01-29T09:16:04.655Z,9.18
2019-01-29T09:18:44.988Z,5.40
2019-01-29T09:21:24.620Z,4.40
2019-01-29T09:24:04.769Z,10.23
2019-01-29T09:26:45.136Z,11.78
2019-01-29T09:29:25.290Z,6.12
2019-01-29T09:32:06.637Z,6.85
2019-01-29T09:34:46.596Z,6.40
2019-01-29T09:37:26.900Z,14.45
2019-01-29T09:40:06.956Z,8.80
2019-01-29T09:42:47.138Z,8.88
2019-01-29T09:45:27.066Z,6.30
2019-01-29T09:48:06.759Z,6.92
2019-01-29T09:50:47.966Z,7.40
2019-01-29T09:53:27.918Z,8.98
2019-01-29T09:56:08.215Z,10.32
2019-01-29T09:58:48.370Z,10.00
2019-01-29T10:01:28.220Z,10.23
2019-01-29T10:04:08.185Z,9.70
2019-01-29T10:06:48.221Z,8.30
2019-01-29T10:09:28.458Z,8.58
2019-01-29T10:12:08.612Z,11.68
2019-01-29T10:14:49.174Z,9.70
2019-01-29T10:17:29.530Z,7.15
2019-01-29T10:20:09.817Z,8.65
2019-01-29T10:22:51.344Z,20.92
2019-01-29T10:25:37.590Z,13.18
2019-01-29T10:28:13.115Z,15.65
2019-01-29T10:30:53.200Z,7.72
2019-01-29T10:33:33.271Z,8.60
2019-01-29T10:36:13.344Z,17.15
2019-01-29T10:38:53.510Z,11.60
2019-01-29T10:41:33.572Z,6.58
2019-01-29T10:44:13.717Z,7.50
2019-01-29T10:46:54.466Z,9.75
2019-01-29T10:49:35.000Z,8.28
2019-01-29T10:52:15.486Z,10.00
2019-01-29T10:54:58.313Z,5.87
2019-01-29T10:57:38.502Z,11.65
2019-01-29T11:00:18.593Z,7.30
2019-01-29T11:02:58.869Z,6.60
2019-01-29T11:05:38.987Z,5.53
2019-01-29T11:08:18.678Z,4.53
2019-01-29T11:10:58.724Z,10.45
2019-01-29T11:13:38.782Z,7.05
2019-01-29T11:16:18.806Z,10.58
2019-01-29T11:19:03.421Z,7.25
2019-01-29T11:21:40.987Z,11.73
2019-01-29T11:24:20.866Z,7.25
2019-01-29T11:27:01.231Z,8.20
2019-01-29T11:29:41.235Z,6.35
2019-01-29T11:32:21.366Z,8.58
2019-01-29T11:35:01.352Z,10.45
2019-01-29T11:37:41.533Z,5.45
2019-01-29T11:40:21.431Z,7.40
2019-01-29T11:43:02.660Z,9.45
2019-01-29T11:45:42.827Z,6.80
2019-01-29T11:48:22.984Z,8.75
2019-01-29T11:51:02.714Z,10.88
2019-01-29T11:53:44.040Z,9.55
2019-01-29T11:56:24.498Z,8.18
2019-01-29T11:59:04.274Z,7.80
2019-01-29T12:01:44.267Z,7.00
2019-01-29T12:04:24.346Z,11.22
2019-01-29T12:07:04.539Z,6.47
2019-01-29T12:09:44.600Z,8.40
2019-01-29T12:12:24.631Z,8.28
2019-01-29T12:15:04.379Z,13.78
2019-01-29T12:17:44.433Z,14.73
2019-01-29T12:20:24.538Z,7.15
2019-01-29T12:23:04.386Z,13.28
2019-01-29T12:25:44.629Z,11.05
2019-01-29T12:28:24.446Z,7.30
2019-01-29T12:31:04.561Z,7.60
2019-01-29T12:33:45.564Z,7.70
2019-01-29T12:36:25.580Z,5.20
2019-01-29T12:39:05.749Z,7.97
2019-01-29T12:41:47.598Z,7.03
2019-01-29T12:44:27.876Z,14.58
2019-01-29T12:47:07.716Z,5.62
2019-01-29T12:49:47.906Z,7.50
2019-01-29T12:52:47.660Z,10.53
2019-01-29T12:55:27.528Z,7.90
2019-01-29T12:58:07.497Z,5.97
2019-01-29T13:00:50.763Z,5.45
2019-01-29T13:03:30.924Z,10.10
2019-01-29T13:06:10.970Z,5.60
2019-01-29T13:08:51.419Z,4.92
2019-01-29T13:11:31.960Z,9.73
2019-01-29T13:14:11.933Z,7.70
2019-01-29T13:16:52.056Z,9.20
2019-01-29T13:19:31.983Z,6.40
2019-01-29T13:22:11.967Z,4.45
2019-01-29T13:24:52.280Z,6.87
2019-01-29T13:27:32.241Z,6.10
2019-01-29T13:30:12.563Z,10.77
2019-01-29T13:32:52.557Z,6.30
2019-01-29T13:35:32.768Z,8.08
2019-01-29T13:38:12.658Z,5.97
2019-01-29T13:40:52.612Z,4.57
2019-01-29T13:43:33.764Z,11.43
2019-01-29T13:46:14.134Z,8.18
2019-01-29T13:48:53.736Z,6.30
2019-01-29T13:51:34.138Z,11.20
2019-01-29T13:54:14.220Z,10.13
2019-01-29T13:56:53.934Z,5.58
2019-01-29T13:59:34.078Z,5.55
2019-01-29T14:02:14.508Z,4.50
2019-01-29T14:04:54.451Z,10.18
2019-01-29T14:07:34.503Z,8.90
2019-01-29T14:10:14.613Z,7.28
2019-01-29T14:12:54.644Z,3.50
2019-01-29T14:15:41.452Z,5.42
2019-01-29T14:18:21.825Z,6.70
2019-01-29T14:21:02.084Z,5.42
2019-01-29T14:23:41.770Z,5.37
2019-01-29T14:26:21.914Z,3.62
2019-01-29T14:29:01.980Z,2.47
2019-01-29T14:31:42.006Z,2.70
2019-01-29T14:34:22.253Z,3.30
2019-01-29T14:37:02.214Z,2.95
2019-01-29T14:39:42.014Z,5.72
2019-01-29T14:42:22.225Z,7.45
2019-01-29T14:45:02.404Z,7.80
2019-01-29T14:47:43.889Z,2.67
2019-01-29T14:50:24.418Z,3.63
2019-01-29T14:53:04.666Z,3.20
2019-01-29T14:55:44.810Z,9.57
2019-01-29T14:58:24.954Z,6.45
2019-01-29T15:01:05.166Z,5.10
2019-01-29T15:03:45.440Z,2.93
2019-01-29T15:06:32.259Z,5.70
2019-01-29T15:09:07.367Z,5.50
2019-01-29T15:11:47.192Z,13.55
2019-01-29T15:14:27.690Z,6.43
2019-01-29T15:17:26.975Z,3.57
2019-01-29T15:20:07.356Z,4.35
2019-01-29T15:22:47.353Z,3.27
2019-01-29T15:25:27.657Z,3.17
2019-01-29T15:28:07.644Z,2.80
2019-01-29T15:30:47.936Z,2.20
2019-01-29T15:33:27.661Z,4.97
2019-01-29T15:36:07.374Z,2.02
2019-01-29T15:38:47.606Z,3.65
2019-01-29T15:41:27.804Z,3.63
2019-01-29T15:44:07.834Z,5.30
2019-01-29T15:46:48.054Z,10.97
2019-01-29T15:49:28.069Z,3.03
2019-01-29T15:52:08.182Z,5.73
2019-01-29T15:54:48.043Z,10.13
2019-01-29T15:57:28.072Z,14.30
2019-01-29T16:00:07.961Z,23.43
2019-01-29T16:02:48.109Z,27.73
2019-01-29T16:05:28.053Z,37.77
2019-01-29T16:08:08.140Z,41.27
2019-01-29T16:10:48.161Z,44.40
2019-01-29T16:13:28.290Z,41.90
2019-01-29T16:16:08.390Z,32.77
2019-01-29T16:18:48.255Z,24.13
2019-01-29T16:21:32.213Z,17.77
2019-01-29T16:24:12.430Z,8.63
2019-01-29T16:26:52.545Z,9.75
2019-01-29T16:29:32.514Z,8.53
2019-01-29T16:32:12.598Z,7.27
2019-01-29T16:34:53.131Z,11.03
2019-01-29T16:37:32.887Z,13.00
2019-01-29T16:40:12.908Z,21.07
2019-01-29T16:42:52.940Z,31.65
2019-01-29T16:45:33.018Z,20.25
2019-01-29T16:48:13.450Z,23.02
2019-01-29T16:50:53.364Z,38.20
2019-01-29T16:53:33.923Z,59.18
2019-01-29T16:56:13.706Z,73.97
2019-01-29T16:58:54.667Z,69.65
2019-01-29T17:01:34.838Z,45.98
2019-01-29T17:04:15.038Z,20.55
2019-01-29T17:06:54.856Z,13.60
2019-01-29T17:09:34.824Z,5.25
2019-01-29T17:12:14.813Z,5.67
2019-01-29T17:14:54.888Z,5.30
2019-01-29T17:17:34.982Z,5.00
2019-01-29T17:20:15.204Z,5.28
2019-01-29T17:22:55.860Z,11.57
2019-01-29T17:25:35.523Z,8.45
2019-01-29T17:28:15.714Z,13.72
2019-01-29T17:30:56.062Z,11.48
2019-01-29T17:33:35.889Z,12.47
2019-01-29T17:36:15.887Z,8.43
2019-01-29T17:38:56.140Z,7.30
2019-01-29T17:41:35.999Z,10.05
2019-01-29T17:44:15.994Z,10.18
2019-01-29T17:46:56.372Z,9.15
2019-01-29T17:49:36.418Z,7.95
2019-01-29T17:52:16.109Z,9.55
2019-01-29T17:54:56.247Z,5.20
2019-01-29T17:57:36.381Z,7.83
2019-01-29T18:00:16.808Z,6.87
2019-01-29T18:02:56.854Z,9.55
2019-01-29T18:05:36.717Z,5.53
2019-01-29T18:08:17.000Z,4.17
2019-01-29T18:10:57.155Z,5.62
2019-01-29T18:13:36.957Z,7.60
2019-01-29T18:16:17.264Z,6.00
2019-01-29T18:18:56.919Z,6.08
2019-01-29T18:21:37.044Z,5.05
2019-01-29T18:24:17.223Z,5.65
2019-01-29T18:26:57.248Z,6.62
2019-01-29T18:29:37.381Z,3.75
2019-01-29T18:32:17.408Z,5.60
2019-01-29T18:34:58.052Z,5.17
2019-01-29T18:37:37.794Z,4.00
2019-01-29T18:40:18.344Z,4.10
2019-01-29T18:42:58.223Z,4.72
2019-01-29T18:45:38.403Z,7.10
2019-01-29T18:48:18.312Z,8.30
2019-01-29T18:50:58.759Z,15.32
2019-01-29T18:53:38.562Z,17.25
2019-01-29T18:56:18.489Z,16.12
2019-01-29T18:58:58.390Z,12.03
2019-01-29T19:01:38.606Z,7.40
2019-01-29T19:04:18.632Z,5.45
2019-01-29T19:06:59.069Z,9.60
2019-01-29T19:09:39.178Z,11.18
2019-01-29T19:12:20.061Z,6.65
2019-01-29T19:15:00.288Z,9.90
2019-01-29T19:17:39.974Z,6.00
2019-01-29T19:20:20.201Z,8.18
2019-01-29T19:23:00.188Z,8.38
2019-01-29T19:25:40.229Z,6.90
2019-01-29T19:28:22.192Z,10.82
2019-01-29T19:31:04.756Z,11.85
2019-01-29T19:33:44.099Z,10.00
2019-01-29T19:36:24.304Z,6.87
2019-01-29T19:39:04.295Z,9.30
2019-01-29T19:41:44.695Z,8.98
2019-01-29T19:44:24.561Z,9.30
2019-01-29T19:47:04.592Z,7.47
2019-01-29T19:49:45.149Z,7.83
2019-01-29T19:52:26.819Z,6.95
2019-01-29T19:55:06.941Z,6.78
2019-01-29T19:57:47.028Z,10.05
2019-01-29T20:00:27.052Z,6.62
2019-01-29T20:03:07.405Z,11.83
2019-01-29T20:05:47.279Z,8.63
2019-01-29T20:08:27.334Z,8.60
2019-01-29T20:11:06.907Z,12.85
2019-01-29T20:13:47.048Z,9.50
2019-01-29T20:16:27.402Z,7.37
2019-01-29T20:19:07.185Z,7.25
2019-01-29T20:21:47.922Z,9.45
2019-01-29T20:24:27.689Z,8.20
2019-01-29T20:27:08.303Z,8.08
2019-01-29T20:29:48.049Z,7.50
2019-01-29T20:32:28.296Z,15.23
2019-01-29T20:35:08.225Z,7.80
2019-01-29T20:37:48.704Z,7.28
2019-01-29T20:40:28.546Z,5.58
2019-01-29T20:43:08.568Z,6.20
2019-01-29T20:45:48.609Z,8.53
2019-01-29T20:48:28.699Z,9.65
2019-01-29T20:51:08.807Z,6.22
2019-01-29T20:53:49.302Z,5.47
2019-01-29T20:56:28.890Z,4.85
2019-01-29T20:59:08.926Z,4.85
2019-01-29T21:01:49.418Z,6.83
2019-01-29T21:04:29.156Z,6.42
2019-01-29T21:07:09.463Z,6.30
2019-01-29T21:09:49.563Z,5.60
2019-01-29T21:12:29.470Z,12.13
2019-01-29T21:15:09.789Z,7.35
2019-01-29T21:17:49.821Z,6.00
2019-01-29T21:20:29.889Z,5.05
2019-01-29T21:23:10.708Z,7.85
2019-01-29T21:25:50.846Z,6.30
2019-01-29T21:28:30.446Z,4.83
2019-01-29T21:31:10.616Z,5.28
2019-01-29T21:33:50.528Z,6.50
2019-01-29T21:42:58.939Z,6.90
2019-01-29T21:45:39.582Z,4.50
2019-01-29T21:48:20.198Z,4.95
2019-01-29T21:51:00.380Z,6.33
2019-01-29T21:53:40.225Z,5.25
2019-01-29T21:56:20.712Z,4.58
2019-01-29T21:59:00.416Z,5.40
2019-01-29T22:01:40.696Z,5.75
2019-01-29T22:04:21.011Z,4.22
2019-01-29T22:07:01.381Z,4.03
2019-01-29T22:09:41.330Z,6.83
2019-01-29T22:12:21.452Z,3.65
2019-01-29T22:15:01.685Z,3.40
2019-01-29T22:17:42.666Z,8.58
2019-01-29T22:20:22.800Z,4.25
2019-01-29T22:23:03.062Z,4.33
2019-01-29T22:25:43.192Z,3.50
2019-01-29T22:28:23.201Z,11.45
2019-01-29T22:31:03.069Z,3.62
2019-01-29T22:33:42.609Z,4.30
2019-01-29T22:36:22.834Z,4.60
2019-01-29T22:39:04.247Z,4.03
2019-01-29T22:41:45.974Z,4.75
2019-01-29T22:44:26.579Z,4.55
2019-01-29T22:47:06.503Z,8.05
2019-01-29T22:49:46.763Z,3.98
2019-01-29T22:52:26.844Z,3.60
2019-01-29T22:55:07.027Z,5.70
2019-01-29T22:57:47.086Z,3.45
2019-01-29T23:00:32.150Z,4.78
2019-01-29T23:03:12.953Z,6.30
2019-01-29T23:05:53.108Z,4.45
2019-01-29T23:08:33.443Z,3.90
2019-01-29T23:11:13.652Z,3.05
2019-01-29T23:13:53.529Z,3.20
2019-01-29T23:16:33.503Z,2.80
2019-01-29T23:19:13.842Z,4.50
2019-01-29T23:21:53.830Z,3.22
2019-01-29T23:24:33.932Z,2.67
2019-01-29T23:27:13.982Z,7.05
2019-01-29T23:29:54.057Z,7.58
2019-01-29T23:32:33.786Z,3.05
2019-01-29T23:35:13.996Z,2.65
2019-01-29T23:37:54.774Z,2.72
2019-01-29T23:40:34.568Z,2.70
2019-01-29T23:43:14.730Z,2.60
2019-01-29T23:45:55.976Z,2.55
2019-01-29T23:48:36.047Z,3.15
2019-01-29T23:51:15.857Z,2.25
2019-01-29T23:53:56.468Z,2.72
2019-01-29T23:56:36.611Z,3.27
2019-01-29T23:59:16.341Z,3.30
